• Join FlightAware (Why Join?)
  • Login
  • US Flag 
12:07PM EDT


 

Airport Tracker/Info


-or-


 

Live Flight TrackerFlight Track Log ✈ SKW4664 ✈ 26-Apr-2013 ✈ KMSP - KFSD

Flight Track Log - Related Links

Times and Time Zones

All times are in EDT time to prevent confusion due to time zone crossing. See the SKW4664 flight status page for this flight to view local times or setup timezone preferences in your user account.

Time Position Orientation Groundspeed Altitude Reporting Facility
EDT Latitude Longitude Course Direction KTS MPH feet Rate Location/Type
10:38AM 44.8208 -93.2322 230° Southwest 194 223 3,600  Level Minneapolis Center
10:39AM 44.7672 -93.2814 213° Southwest 238 274 5,800 1,620 Climbing Minneapolis Center
10:40AM 44.7233 -93.3547 230° Southwest 256 295 7,000 540 Climbing Minneapolis Center
10:41AM 44.6601 -93.6799 235° Southwest  Level FlightAware Approximate
10:41AM 44.6972 -93.4483 249° West 258 297 7,000  Level Minneapolis Center
10:42AM 44.6013 -93.7974 235° Southwest  Level FlightAware Approximate
10:42AM 44.6653 -93.5603 248° West 258 297 10,100  Level Minneapolis Center
10:43AM 44.5342 -93.9041 230° Southwest  Level FlightAware Approximate
10:43AM 44.6372 -93.6569 248° West 268 308 12,500  Level Minneapolis Center
10:44AM 44.6050 -93.7686 248° West 312 359 13,900 1,680 Climbing Minneapolis Center
10:45AM 44.5631 -93.8831 243° Southwest 328 377 16,000 1,620 Climbing Minneapolis Center
10:47AM 44.5044 -93.9933 233° Southwest 355 409 17,300 1,260 Climbing Minneapolis Center
10:48AM 44.4458 -94.1058 234° Southwest 358 412 18,700 1,500 Climbing Minneapolis Center
10:49AM 44.3719 -94.2467 234° Southwest 372 428 20,400 1,260 Climbing Minneapolis Center
10:50AM 44.3086 -94.3672 234° Southwest 384 442 21,400 960 Climbing Minneapolis Center
10:51AM 44.2606 -94.5006 243° Southwest 388 447 22,400 960 Climbing Minneapolis Center
10:52AM 44.2222 -94.6547 251° West 393 452 23,400 720 Climbing Minneapolis Center
10:53AM 44.1844 -94.7994 250° West 397 457 24,000 240 Climbing Minneapolis Center
10:54AM 44.1464 -94.9425 250° West 396 456 24,000  Level Minneapolis Center
10:55AM 44.1111 -95.0800 250° West 383 441 24,000  Level Minneapolis Center
10:56AM 44.0742 -95.2189 250° West 382 440 24,000 -1,260 Level Minneapolis Center
10:57AM 44.0300 -95.3878 250° West 387 445 21,200 -2,580 Descending Minneapolis Center
10:58AM 43.9878 -95.5467 250° West 367 422 18,200 -2,580 Descending Minneapolis Center
10:59AM 43.9542 -95.6711 249° West 349 402 15,900 -2,160 Descending Minneapolis Center
11:00AM 43.9217 -95.7964 250° West 346 398 13,800 -2,040 Descending Minneapolis Center
11:01AM 43.8889 -95.9147 249° West 332 382 11,800 -1,800 Descending Minneapolis Center
11:02AM 43.8608 -96.0164 249° West 293 337 10,100 -1,560 Descending Minneapolis Center
11:03AM 43.8286 -96.1067 244° Southwest 275 316 8,600 -1,500 Descending Minneapolis Center
11:04AM 43.7872 -96.2131 242° Southwest 265 305 7,100 -1,260 Descending Minneapolis Center
11:05AM 43.7511 -96.3028 241° Southwest 265 305 6,100 -1,020 Descending Minneapolis Center
11:06AM 43.7147 -96.3919 241° Southwest 265 305 5,000 -780 Descending Minneapolis Center
11:07AM 43.6767 -96.4775 238° Southwest 264 304 4,500 -660 Descending Minneapolis Center
11:08AM 43.6214 -96.5228 211° Southwest 242 278 3,700 -600 Descending Minneapolis Center
11:09AM 43.5778 -96.5831 225° Southwest 230 265 3,300 -420 Descending Minneapolis Center